sensor_id;sensor_type;location;lat;lon;timestamp;temperature;humidity
63017;DHT22;50274;45.640;11.756;2023-08-06T00:00:44;20.40;79.80
63017;DHT22;50274;45.640;11.756;2023-08-06T00:03:10;20.40;79.80
63017;DHT22;50274;45.640;11.756;2023-08-06T00:05:36;20.50;79.70
63017;DHT22;50274;45.640;11.756;2023-08-06T00:08:02;20.40;79.70
63017;DHT22;50274;45.640;11.756;2023-08-06T00:10:28;20.40;79.70
63017;DHT22;50274;45.640;11.756;2023-08-06T00:12:53;20.40;79.60
63017;DHT22;50274;45.640;11.756;2023-08-06T00:15:19;20.40;79.70
63017;DHT22;50274;45.640;11.756;2023-08-06T00:17:45;20.40;79.60
63017;DHT22;50274;45.640;11.756;2023-08-06T00:20:11;20.40;79.60
63017;DHT22;50274;45.640;11.756;2023-08-06T00:22:37;20.40;79.70
63017;DHT22;50274;45.640;11.756;2023-08-06T00:25:04;20.40;79.70
63017;DHT22;50274;45.640;11.756;2023-08-06T00:27:30;20.40;79.70
63017;DHT22;50274;45.640;11.756;2023-08-06T00:29:56;20.40;79.60
63017;DHT22;50274;45.640;11.756;2023-08-06T00:32:22;20.40;79.60
63017;DHT22;50274;45.640;11.756;2023-08-06T00:34:47;20.40;79.60
63017;DHT22;50274;45.640;11.756;2023-08-06T00:37:18;20.40;79.60
63017;DHT22;50274;45.640;11.756;2023-08-06T00:39:45;20.40;79.60
63017;DHT22;50274;45.640;11.756;2023-08-06T00:42:11;20.40;79.60
63017;DHT22;50274;45.640;11.756;2023-08-06T00:44:37;20.40;79.60
63017;DHT22;50274;45.640;11.756;2023-08-06T00:47:04;20.30;79.70
63017;DHT22;50274;45.640;11.756;2023-08-06T00:49:30;20.30;79.70
63017;DHT22;50274;45.640;11.756;2023-08-06T00:51:56;20.30;79.70
63017;DHT22;50274;45.640;11.756;2023-08-06T00:54:23;20.30;79.80
63017;DHT22;50274;45.640;11.756;2023-08-06T00:56:50;20.30;79.70
63017;DHT22;50274;45.640;11.756;2023-08-06T00:59:16;20.30;79.70
63017;DHT22;50274;45.640;11.756;2023-08-06T01:01:42;20.30;79.70
63017;DHT22;50274;45.640;11.756;2023-08-06T01:04:08;20.30;79.80
63017;DHT22;50274;45.640;11.756;2023-08-06T01:06:45;20.30;79.70
63017;DHT22;50274;45.640;11.756;2023-08-06T01:12:13;20.30;79.70
63017;DHT22;50274;45.640;11.756;2023-08-06T01:17:36;20.30;79.60
63017;DHT22;50274;45.640;11.756;2023-08-06T01:20:01;20.40;79.60
63017;DHT22;50274;45.640;11.756;2023-08-06T01:22:27;20.30;79.60
63017;DHT22;50274;45.640;11.756;2023-08-06T01:24:54;20.30;79.50
63017;DHT22;50274;45.640;11.756;2023-08-06T01:29:49;20.30;79.50
63017;DHT22;50274;45.640;11.756;2023-08-06T01:32:21;20.40;79.50
63017;DHT22;50274;45.640;11.756;2023-08-06T01:34:48;20.40;79.50
63017;DHT22;50274;45.640;11.756;2023-08-06T01:37:15;20.30;79.50
63017;DHT22;50274;45.640;11.756;2023-08-06T01:39:43;20.30;79.60
63017;DHT22;50274;45.640;11.756;2023-08-06T01:42:09;20.40;79.60
63017;DHT22;50274;45.640;11.756;2023-08-06T01:44:35;20.30;79.60
63017;DHT22;50274;45.640;11.756;2023-08-06T01:47:00;20.30;79.60
63017;DHT22;50274;45.640;11.756;2023-08-06T01:49:26;20.30;79.60
63017;DHT22;50274;45.640;11.756;2023-08-06T01:51:52;20.40;79.70
63017;DHT22;50274;45.640;11.756;2023-08-06T01:54:18;20.40;79.70
63017;DHT22;50274;45.640;11.756;2023-08-06T01:56:44;20.40;79.70
63017;DHT22;50274;45.640;11.756;2023-08-06T01:59:09;20.40;79.70
63017;DHT22;50274;45.640;11.756;2023-08-06T02:01:35;20.40;79.70
63017;DHT22;50274;45.640;11.756;2023-08-06T02:04:01;20.40;79.70
63017;DHT22;50274;45.640;11.756;2023-08-06T02:06:27;20.40;79.70
63017;DHT22;50274;45.640;11.756;2023-08-06T02:08:52;20.40;79.70
63017;DHT22;50274;45.640;11.756;2023-08-06T02:11:18;20.40;79.70
63017;DHT22;50274;45.640;11.756;2023-08-06T02:13:46;20.40;79.70
63017;DHT22;50274;45.640;11.756;2023-08-06T02:16:12;20.40;79.80
63017;DHT22;50274;45.640;11.756;2023-08-06T02:18:37;20.40;79.90
63017;DHT22;50274;45.640;11.756;2023-08-06T02:21:03;20.40;79.90
63017;DHT22;50274;45.640;11.756;2023-08-06T02:23:29;20.30;80.00
63017;DHT22;50274;45.640;11.756;2023-08-06T02:28:24;20.40;80.00
63017;DHT22;50274;45.640;11.756;2023-08-06T02:30:51;20.40;80.00
63017;DHT22;50274;45.640;11.756;2023-08-06T02:33:17;20.40;80.00
63017;DHT22;50274;45.640;11.756;2023-08-06T02:35:43;20.40;80.00
63017;DHT22;50274;45.640;11.756;2023-08-06T02:38:09;20.40;80.00
63017;DHT22;50274;45.640;11.756;2023-08-06T02:40:34;20.40;80.00
63017;DHT22;50274;45.640;11.756;2023-08-06T02:43:00;20.40;80.00
63017;DHT22;50274;45.640;11.756;2023-08-06T02:45:26;20.40;80.00
63017;DHT22;50274;45.640;11.756;2023-08-06T02:47:52;20.50;80.00
63017;DHT22;50274;45.640;11.756;2023-08-06T02:50:17;20.40;80.00
63017;DHT22;50274;45.640;11.756;2023-08-06T02:52:43;20.40;80.00
63017;DHT22;50274;45.640;11.756;2023-08-06T02:55:09;20.40;80.10
63017;DHT22;50274;45.640;11.756;2023-08-06T02:57:35;20.40;80.00
63017;DHT22;50274;45.640;11.756;2023-08-06T03:00:01;20.40;80.00
63017;DHT22;50274;45.640;11.756;2023-08-06T03:02:28;20.30;80.10
63017;DHT22;50274;45.640;11.756;2023-08-06T03:04:54;20.30;80.20
63017;DHT22;50274;45.640;11.756;2023-08-06T03:07:20;20.30;80.10
63017;DHT22;50274;45.640;11.756;2023-08-06T03:09:46;20.30;80.10
63017;DHT22;50274;45.640;11.756;2023-08-06T03:12:12;20.30;80.10
63017;DHT22;50274;45.640;11.756;2023-08-06T03:14:38;20.30;80.20
63017;DHT22;50274;45.640;11.756;2023-08-06T03:17:04;20.30;80.20
63017;DHT22;50274;45.640;11.756;2023-08-06T03:19:29;20.30;80.20
63017;DHT22;50274;45.640;11.756;2023-08-06T03:21:55;20.30;80.30
63017;DHT22;50274;45.640;11.756;2023-08-06T03:24:21;20.20;80.30
63017;DHT22;50274;45.640;11.756;2023-08-06T03:26:47;20.20;80.30
63017;DHT22;50274;45.640;11.756;2023-08-06T03:29:13;20.30;80.40
63017;DHT22;50274;45.640;11.756;2023-08-06T03:31:38;20.20;80.40
63017;DHT22;50274;45.640;11.756;2023-08-06T03:34:04;20.20;80.40
63017;DHT22;50274;45.640;11.756;2023-08-06T03:36:30;20.20;80.40
63017;DHT22;50274;45.640;11.756;2023-08-06T03:38:56;20.20;80.50
63017;DHT22;50274;45.640;11.756;2023-08-06T03:41:22;20.20;80.50
63017;DHT22;50274;45.640;11.756;2023-08-06T03:43:48;20.20;80.50
63017;DHT22;50274;45.640;11.756;2023-08-06T03:46:13;20.20;80.60
63017;DHT22;50274;45.640;11.756;2023-08-06T03:48:39;20.20;80.60
63017;DHT22;50274;45.640;11.756;2023-08-06T03:51:05;20.20;80.60
63017;DHT22;50274;45.640;11.756;2023-08-06T03:53:31;20.20;80.70
63017;DHT22;50274;45.640;11.756;2023-08-06T03:55:57;20.20;80.70
63017;DHT22;50274;45.640;11.756;2023-08-06T03:58:25;20.20;80.70
63017;DHT22;50274;45.640;11.756;2023-08-06T04:00:59;20.20;80.70
63017;DHT22;50274;45.640;11.756;2023-08-06T04:03:25;20.10;80.60
63017;DHT22;50274;45.640;11.756;2023-08-06T04:05:51;20.10;80.60
63017;DHT22;50274;45.640;11.756;2023-08-06T04:08:17;20.10;80.70
63017;DHT22;50274;45.640;11.756;2023-08-06T04:10:43;20.10;80.70
63017;DHT22;50274;45.640;11.756;2023-08-06T04:13:09;20.00;80.80
63017;DHT22;50274;45.640;11.756;2023-08-06T04:15:34;20.00;80.70
63017;DHT22;50274;45.640;11.756;2023-08-06T04:18:00;20.00;80.70
63017;DHT22;50274;45.640;11.756;2023-08-06T04:20:26;20.00;80.80
63017;DHT22;50274;45.640;11.756;2023-08-06T04:22:55;20.00;80.80
63017;DHT22;50274;45.640;11.756;2023-08-06T04:25:21;20.00;80.90
63017;DHT22;50274;45.640;11.756;2023-08-06T04:27:47;20.00;80.90
63017;DHT22;50274;45.640;11.756;2023-08-06T04:30:13;20.00;81.00
63017;DHT22;50274;45.640;11.756;2023-08-06T04:32:39;20.00;81.00
63017;DHT22;50274;45.640;11.756;2023-08-06T04:35:05;20.00;81.00
63017;DHT22;50274;45.640;11.756;2023-08-06T04:37:31;20.00;80.90
63017;DHT22;50274;45.640;11.756;2023-08-06T04:39:57;20.00;81.00
63017;DHT22;50274;45.640;11.756;2023-08-06T04:42:23;20.00;80.90
63017;DHT22;50274;45.640;11.756;2023-08-06T04:44:49;20.00;80.90
63017;DHT22;50274;45.640;11.756;2023-08-06T04:47:15;20.00;80.90
63017;DHT22;50274;45.640;11.756;2023-08-06T04:49:41;20.00;80.90
63017;DHT22;50274;45.640;11.756;2023-08-06T04:52:07;20.00;80.90
63017;DHT22;50274;45.640;11.756;2023-08-06T04:54:34;20.00;80.90
63017;DHT22;50274;45.640;11.756;2023-08-06T04:56:59;19.90;81.00
63017;DHT22;50274;45.640;11.756;2023-08-06T04:59:25;19.90;81.00
63017;DHT22;50274;45.640;11.756;2023-08-06T05:01:51;19.90;81.10
63017;DHT22;50274;45.640;11.756;2023-08-06T05:04:17;20.00;81.00
63017;DHT22;50274;45.640;11.756;2023-08-06T05:06:43;20.00;81.00
63017;DHT22;50274;45.640;11.756;2023-08-06T05:09:08;19.90;80.90
63017;DHT22;50274;45.640;11.756;2023-08-06T05:11:34;20.00;80.90
63017;DHT22;50274;45.640;11.756;2023-08-06T05:14:00;20.00;80.80
63017;DHT22;50274;45.640;11.756;2023-08-06T05:16:26;20.00;80.80
63017;DHT22;50274;45.640;11.756;2023-08-06T05:18:52;20.10;80.70
63017;DHT22;50274;45.640;11.756;2023-08-06T05:21:17;20.10;80.60
63017;DHT22;50274;45.640;11.756;2023-08-06T05:23:43;20.10;80.60
63017;DHT22;50274;45.640;11.756;2023-08-06T05:26:09;20.10;80.60
63017;DHT22;50274;45.640;11.756;2023-08-06T05:28:35;20.10;80.60
63017;DHT22;50274;45.640;11.756;2023-08-06T05:31:04;20.20;80.50
63017;DHT22;50274;45.640;11.756;2023-08-06T05:33:30;20.20;80.50
63017;DHT22;50274;45.640;11.756;2023-08-06T05:35:56;20.20;80.40
63017;DHT22;50274;45.640;11.756;2023-08-06T05:38:22;20.30;80.30
63017;DHT22;50274;45.640;11.756;2023-08-06T05:40:48;20.30;80.20
63017;DHT22;50274;45.640;11.756;2023-08-06T05:43:14;20.40;79.80
63017;DHT22;50274;45.640;11.756;2023-08-06T05:45:44;20.50;79.10
63017;DHT22;50274;45.640;11.756;2023-08-06T05:48:10;20.50;79.10
63017;DHT22;50274;45.640;11.756;2023-08-06T05:50:36;20.50;79.20
63017;DHT22;50274;45.640;11.756;2023-08-06T05:53:02;20.60;79.20
63017;DHT22;50274;45.640;11.756;2023-08-06T05:55:28;20.60;79.20
63017;DHT22;50274;45.640;11.756;2023-08-06T05:57:54;20.70;79.10
63017;DHT22;50274;45.640;11.756;2023-08-06T06:00:21;20.80;78.50
63017;DHT22;50274;45.640;11.756;2023-08-06T06:02:47;20.80;78.00
63017;DHT22;50274;45.640;11.756;2023-08-06T06:05:13;20.90;77.80
63017;DHT22;50274;45.640;11.756;2023-08-06T06:07:38;20.90;77.90
63017;DHT22;50274;45.640;11.756;2023-08-06T06:10:05;20.90;77.90
63017;DHT22;50274;45.640;11.756;2023-08-06T06:12:31;21.00;77.90
63017;DHT22;50274;45.640;11.756;2023-08-06T06:14:56;21.10;77.80
63017;DHT22;50274;45.640;11.756;2023-08-06T06:17:22;21.10;77.40
63017;DHT22;50274;45.640;11.756;2023-08-06T06:19:48;21.20;77.40
63017;DHT22;50274;45.640;11.756;2023-08-06T06:22:14;21.20;77.30
63017;DHT22;50274;45.640;11.756;2023-08-06T06:24:40;21.30;77.20
63017;DHT22;50274;45.640;11.756;2023-08-06T06:27:06;21.50;77.10
63017;DHT22;50274;45.640;11.756;2023-08-06T06:29:31;21.60;77.00
63017;DHT22;50274;45.640;11.756;2023-08-06T06:31:57;21.70;76.90
63017;DHT22;50274;45.640;11.756;2023-08-06T06:34:23;21.70;76.60
63017;DHT22;50274;45.640;11.756;2023-08-06T06:36:49;21.80;76.10
63017;DHT22;50274;45.640;11.756;2023-08-06T06:39:15;21.90;76.00
63017;DHT22;50274;45.640;11.756;2023-08-06T06:41:41;22.00;75.90
63017;DHT22;50274;45.640;11.756;2023-08-06T06:44:07;22.10;75.60
63017;DHT22;50274;45.640;11.756;2023-08-06T06:46:33;22.10;75.10
63017;DHT22;50274;45.640;11.756;2023-08-06T06:48:59;22.10;75.10
63017;DHT22;50274;45.640;11.756;2023-08-06T06:51:24;22.10;75.30
63017;DHT22;50274;45.640;11.756;2023-08-06T06:53:50;22.20;75.30
63017;DHT22;50274;45.640;11.756;2023-08-06T06:56:16;22.30;75.10
63017;DHT22;50274;45.640;11.756;2023-08-06T06:58:42;22.30;74.80
63017;DHT22;50274;45.640;11.756;2023-08-06T07:01:08;22.40;74.70
63017;DHT22;50274;45.640;11.756;2023-08-06T07:03:36;22.40;74.90
63017;DHT22;50274;45.640;11.756;2023-08-06T07:06:01;22.50;74.90
63017;DHT22;50274;45.640;11.756;2023-08-06T07:08:27;22.60;74.80
63017;DHT22;50274;45.640;11.756;2023-08-06T07:11:04;22.60;74.50
63017;DHT22;50274;45.640;11.756;2023-08-06T07:13:30;22.70;74.30
63017;DHT22;50274;45.640;11.756;2023-08-06T07:15:56;22.80;74.10
63017;DHT22;50274;45.640;11.756;2023-08-06T07:18:22;23.00;73.60
63017;DHT22;50274;45.640;11.756;2023-08-06T07:20:49;23.10;73.50
63017;DHT22;50274;45.640;11.756;2023-08-06T07:23:15;23.20;72.50
63017;DHT22;50274;45.640;11.756;2023-08-06T07:25:41;23.10;72.60
63017;DHT22;50274;45.640;11.756;2023-08-06T07:28:07;23.10;72.30
63017;DHT22;50274;45.640;11.756;2023-08-06T07:30:32;23.10;72.50
63017;DHT22;50274;45.640;11.756;2023-08-06T07:32:58;23.20;72.30
63017;DHT22;50274;45.640;11.756;2023-08-06T07:35:24;23.20;72.30
63017;DHT22;50274;45.640;11.756;2023-08-06T07:37:50;23.30;72.00
63017;DHT22;50274;45.640;11.756;2023-08-06T07:40:16;23.40;71.10
63017;DHT22;50274;45.640;11.756;2023-08-06T07:42:41;23.40;70.70
63017;DHT22;50274;45.640;11.756;2023-08-06T07:45:08;23.40;70.70
63017;DHT22;50274;45.640;11.756;2023-08-06T07:47:34;23.40;70.80
63017;DHT22;50274;45.640;11.756;2023-08-06T07:50:00;23.40;71.00
63017;DHT22;50274;45.640;11.756;2023-08-06T07:52:26;23.60;70.60
63017;DHT22;50274;45.640;11.756;2023-08-06T07:54:51;23.70;70.00
63017;DHT22;50274;45.640;11.756;2023-08-06T07:57:17;23.70;69.70
63017;DHT22;50274;45.640;11.756;2023-08-06T07:59:43;23.80;69.40
63017;DHT22;50274;45.640;11.756;2023-08-06T08:02:09;23.80;69.40
63017;DHT22;50274;45.640;11.756;2023-08-06T08:04:35;23.90;69.40
63017;DHT22;50274;45.640;11.756;2023-08-06T08:07:00;23.90;69.20
63017;DHT22;50274;45.640;11.756;2023-08-06T08:09:26;24.00;68.70
63017;DHT22;50274;45.640;11.756;2023-08-06T08:11:52;24.00;68.80
63017;DHT22;50274;45.640;11.756;2023-08-06T08:14:18;24.00;68.30
63017;DHT22;50274;45.640;11.756;2023-08-06T08:16:44;24.10;67.70
63017;DHT22;50274;45.640;11.756;2023-08-06T08:19:09;24.10;67.40
63017;DHT22;50274;45.640;11.756;2023-08-06T08:21:35;24.20;67.50
63017;DHT22;50274;45.640;11.756;2023-08-06T08:24:03;24.30;67.30
63017;DHT22;50274;45.640;11.756;2023-08-06T08:26:29;24.30;67.30
63017;DHT22;50274;45.640;11.756;2023-08-06T08:28:56;24.40;66.90
63017;DHT22;50274;45.640;11.756;2023-08-06T08:31:22;24.50;66.40
63017;DHT22;50274;45.640;11.756;2023-08-06T08:33:48;24.50;66.20
63017;DHT22;50274;45.640;11.756;2023-08-06T08:36:13;24.50;66.50
63017;DHT22;50274;45.640;11.756;2023-08-06T08:38:39;24.60;66.20
63017;DHT22;50274;45.640;11.756;2023-08-06T08:41:06;24.70;66.00
63017;DHT22;50274;45.640;11.756;2023-08-06T08:43:32;24.80;66.10
63017;DHT22;50274;45.640;11.756;2023-08-06T08:45:59;24.90;65.70
63017;DHT22;50274;45.640;11.756;2023-08-06T08:48:26;25.00;65.20
63017;DHT22;50274;45.640;11.756;2023-08-06T08:50:53;25.10;65.10
63017;DHT22;50274;45.640;11.756;2023-08-06T08:53:19;25.10;64.80
63017;DHT22;50274;45.640;11.756;2023-08-06T08:55:48;25.20;64.50
63017;DHT22;50274;45.640;11.756;2023-08-06T08:58:14;25.30;63.80
63017;DHT22;50274;45.640;11.756;2023-08-06T09:00:42;25.40;63.30
63017;DHT22;50274;45.640;11.756;2023-08-06T09:03:08;25.50;63.30
63017;DHT22;50274;45.640;11.756;2023-08-06T09:05:34;25.60;63.10
63017;DHT22;50274;45.640;11.756;2023-08-06T09:08:04;25.70;62.40
63017;DHT22;50274;45.640;11.756;2023-08-06T09:10:30;25.70;62.20
63017;DHT22;50274;45.640;11.756;2023-08-06T09:12:57;25.70;61.60
63017;DHT22;50274;45.640;11.756;2023-08-06T09:15:27;25.70;61.70
63017;DHT22;50274;45.640;11.756;2023-08-06T09:17:56;25.80;61.70
63017;DHT22;50274;45.640;11.756;2023-08-06T09:20:22;25.90;61.30
63017;DHT22;50274;45.640;11.756;2023-08-06T09:22:48;26.00;61.10
63017;DHT22;50274;45.640;11.756;2023-08-06T09:25:24;26.10;60.50
63017;DHT22;50274;45.640;11.756;2023-08-06T09:27:52;26.20;59.90
63017;DHT22;50274;45.640;11.756;2023-08-06T09:30:36;26.20;59.90
63017;DHT22;50274;45.640;11.756;2023-08-06T09:33:02;26.40;59.80
63017;DHT22;50274;45.640;11.756;2023-08-06T09:35:29;26.50;59.30
63017;DHT22;50274;45.640;11.756;2023-08-06T09:38:04;26.60;58.90
63017;DHT22;50274;45.640;11.756;2023-08-06T09:40:32;26.70;57.90
63017;DHT22;50274;45.640;11.756;2023-08-06T09:42:59;26.80;57.00
63017;DHT22;50274;45.640;11.756;2023-08-06T09:45:36;26.90;57.20
63017;DHT22;50274;45.640;11.756;2023-08-06T09:48:04;27.00;57.00
63017;DHT22;50274;45.640;11.756;2023-08-06T09:50:32;27.00;56.90
63017;DHT22;50274;45.640;11.756;2023-08-06T09:52:59;26.90;57.10
63017;DHT22;50274;45.640;11.756;2023-08-06T09:55:26;26.80;56.90
63017;DHT22;50274;45.640;11.756;2023-08-06T09:57:52;26.60;57.30
63017;DHT22;50274;45.640;11.756;2023-08-06T10:00:19;26.50;56.70
63017;DHT22;50274;45.640;11.756;2023-08-06T10:02:46;26.40;57.40
63017;DHT22;50274;45.640;11.756;2023-08-06T10:05:12;26.50;58.10
63017;DHT22;50274;45.640;11.756;2023-08-06T10:07:38;26.60;58.00
63017;DHT22;50274;45.640;11.756;2023-08-06T10:10:06;26.80;58.20
63017;DHT22;50274;45.640;11.756;2023-08-06T10:12:34;27.10;57.80
63017;DHT22;50274;45.640;11.756;2023-08-06T10:15:04;27.30;57.20
63017;DHT22;50274;45.640;11.756;2023-08-06T10:17:34;27.60;56.60
63017;DHT22;50274;45.640;11.756;2023-08-06T10:20:00;27.80;55.60
63017;DHT22;50274;45.640;11.756;2023-08-06T10:22:26;27.90;54.30
63017;DHT22;50274;45.640;11.756;2023-08-06T10:24:55;28.00;54.50
63017;DHT22;50274;45.640;11.756;2023-08-06T10:30:24;28.20;55.10
63017;DHT22;50274;45.640;11.756;2023-08-06T10:32:52;28.30;54.80
63017;DHT22;50274;45.640;11.756;2023-08-06T10:38:05;28.00;54.40
63017;DHT22;50274;45.640;11.756;2023-08-06T10:40:33;28.00;54.50
63017;DHT22;50274;45.640;11.756;2023-08-06T10:43:03;28.10;54.10
63017;DHT22;50274;45.640;11.756;2023-08-06T10:45:29;28.20;53.70
63017;DHT22;50274;45.640;11.756;2023-08-06T10:47:56;28.30;52.50
63017;DHT22;50274;45.640;11.756;2023-08-06T10:50:23;28.50;52.80
63017;DHT22;50274;45.640;11.756;2023-08-06T10:52:49;28.60;53.00
63017;DHT22;50274;45.640;11.756;2023-08-06T10:55:26;28.70;52.60
63017;DHT22;50274;45.640;11.756;2023-08-06T10:57:53;28.90;51.50
63017;DHT22;50274;45.640;11.756;2023-08-06T11:00:21;29.00;51.40
63017;DHT22;50274;45.640;11.756;2023-08-06T11:02:48;29.10;50.90
63017;DHT22;50274;45.640;11.756;2023-08-06T11:05:17;29.10;51.30
63017;DHT22;50274;45.640;11.756;2023-08-06T11:07:43;29.10;50.90
63017;DHT22;50274;45.640;11.756;2023-08-06T11:10:11;29.20;50.70
63017;DHT22;50274;45.640;11.756;2023-08-06T11:12:38;29.20;50.50
63017;DHT22;50274;45.640;11.756;2023-08-06T11:15:04;29.30;50.80
63017;DHT22;50274;45.640;11.756;2023-08-06T11:17:32;29.40;50.20
63017;DHT22;50274;45.640;11.756;2023-08-06T11:20:05;29.50;50.10
63017;DHT22;50274;45.640;11.756;2023-08-06T11:22:31;29.50;50.30
63017;DHT22;50274;45.640;11.756;2023-08-06T11:24:57;29.60;49.70
63017;DHT22;50274;45.640;11.756;2023-08-06T11:27:23;29.70;47.90
63017;DHT22;50274;45.640;11.756;2023-08-06T11:29:52;29.80;48.40
63017;DHT22;50274;45.640;11.756;2023-08-06T11:32:18;29.90;47.60
63017;DHT22;50274;45.640;11.756;2023-08-06T11:34:44;29.90;47.20
63017;DHT22;50274;45.640;11.756;2023-08-06T11:37:10;30.10;47.90
63017;DHT22;50274;45.640;11.756;2023-08-06T11:39:37;30.20;47.90
63017;DHT22;50274;45.640;11.756;2023-08-06T11:42:04;30.10;48.40
63017;DHT22;50274;45.640;11.756;2023-08-06T11:44:32;29.80;48.60
63017;DHT22;50274;45.640;11.756;2023-08-06T11:47:03;29.70;49.40
63017;DHT22;50274;45.640;11.756;2023-08-06T11:49:43;29.50;50.30
63017;DHT22;50274;45.640;11.756;2023-08-06T11:54:59;28.70;52.10
63017;DHT22;50274;45.640;11.756;2023-08-06T11:57:26;28.50;53.10
63017;DHT22;50274;45.640;11.756;2023-08-06T11:59:52;28.30;53.90
63017;DHT22;50274;45.640;11.756;2023-08-06T12:02:21;28.20;53.60
63017;DHT22;50274;45.640;11.756;2023-08-06T12:05:04;28.10;54.00
63017;DHT22;50274;45.640;11.756;2023-08-06T12:07:37;28.50;52.80
63017;DHT22;50274;45.640;11.756;2023-08-06T12:10:04;28.90;51.00
63017;DHT22;50274;45.640;11.756;2023-08-06T12:12:30;29.20;50.50
63017;DHT22;50274;45.640;11.756;2023-08-06T12:14:56;29.40;49.80
63017;DHT22;50274;45.640;11.756;2023-08-06T12:17:23;29.50;49.80
63017;DHT22;50274;45.640;11.756;2023-08-06T12:19:49;29.70;50.10
63017;DHT22;50274;45.640;11.756;2023-08-06T12:22:15;29.90;49.60
63017;DHT22;50274;45.640;11.756;2023-08-06T12:24:45;29.90;47.30
63017;DHT22;50274;45.640;11.756;2023-08-06T12:27:12;30.00;47.50
63017;DHT22;50274;45.640;11.756;2023-08-06T12:29:44;30.10;46.70
63017;DHT22;50274;45.640;11.756;2023-08-06T12:32:11;30.10;46.20
63017;DHT22;50274;45.640;11.756;2023-08-06T12:34:38;30.10;47.00
63017;DHT22;50274;45.640;11.756;2023-08-06T12:37:05;30.10;46.80
63017;DHT22;50274;45.640;11.756;2023-08-06T12:39:31;30.30;46.80
63017;DHT22;50274;45.640;11.756;2023-08-06T12:42:01;30.50;46.80
63017;DHT22;50274;45.640;11.756;2023-08-06T12:44:27;30.80;46.70
63017;DHT22;50274;45.640;11.756;2023-08-06T12:46:53;31.10;46.20
63017;DHT22;50274;45.640;11.756;2023-08-06T12:49:20;31.10;45.70
63017;DHT22;50274;45.640;11.756;2023-08-06T12:51:49;30.90;45.20
63017;DHT22;50274;45.640;11.756;2023-08-06T12:54:17;30.50;45.10
63017;DHT22;50274;45.640;11.756;2023-08-06T12:56:43;30.20;46.10
63017;DHT22;50274;45.640;11.756;2023-08-06T12:59:09;30.00;46.90
63017;DHT22;50274;45.640;11.756;2023-08-06T13:01:37;29.80;47.40
63017;DHT22;50274;45.640;11.756;2023-08-06T13:04:03;29.70;47.90
63017;DHT22;50274;45.640;11.756;2023-08-06T13:06:29;29.90;47.80
63017;DHT22;50274;45.640;11.756;2023-08-06T13:08:57;30.10;48.00
63017;DHT22;50274;45.640;11.756;2023-08-06T13:11:23;30.50;47.50
63017;DHT22;50274;45.640;11.756;2023-08-06T13:13:49;30.80;47.30
63017;DHT22;50274;45.640;11.756;2023-08-06T13:16:15;30.90;46.60
63017;DHT22;50274;45.640;11.756;2023-08-06T13:18:41;31.10;46.20
63017;DHT22;50274;45.640;11.756;2023-08-06T13:21:07;31.30;45.60
63017;DHT22;50274;45.640;11.756;2023-08-06T13:23:32;31.40;45.00
63017;DHT22;50274;45.640;11.756;2023-08-06T13:25:58;31.40;44.50
63017;DHT22;50274;45.640;11.756;2023-08-06T13:28:24;31.20;45.30
63017;DHT22;50274;45.640;11.756;2023-08-06T13:33:54;30.40;47.00
63017;DHT22;50274;45.640;11.756;2023-08-06T13:36:24;30.10;48.00
63017;DHT22;50274;45.640;11.756;2023-08-06T13:38:50;29.80;48.40
63017;DHT22;50274;45.640;11.756;2023-08-06T13:41:16;29.50;48.60
63017;DHT22;50274;45.640;11.756;2023-08-06T13:43:43;29.20;48.80
63017;DHT22;50274;45.640;11.756;2023-08-06T13:46:10;28.90;49.60
63017;DHT22;50274;45.640;11.756;2023-08-06T13:48:42;28.70;49.70
63017;DHT22;50274;45.640;11.756;2023-08-06T13:51:08;28.60;50.40
63017;DHT22;50274;45.640;11.756;2023-08-06T13:53:34;28.40;51.00
63017;DHT22;50274;45.640;11.756;2023-08-06T13:55:59;28.20;51.40
63017;DHT22;50274;45.640;11.756;2023-08-06T13:58:25;28.10;52.00
63017;DHT22;50274;45.640;11.756;2023-08-06T14:00:52;27.90;52.60
63017;DHT22;50274;45.640;11.756;2023-08-06T14:03:20;27.70;53.00
63017;DHT22;50274;45.640;11.756;2023-08-06T14:05:46;27.60;53.40
63017;DHT22;50274;45.640;11.756;2023-08-06T14:08:11;27.50;53.80
63017;DHT22;50274;45.640;11.756;2023-08-06T14:10:37;27.50;54.30
63017;DHT22;50274;45.640;11.756;2023-08-06T14:13:03;27.60;54.50
63017;DHT22;50274;45.640;11.756;2023-08-06T14:18:51;28.60;53.90
63017;DHT22;50274;45.640;11.756;2023-08-06T14:21:16;29.30;52.80
63017;DHT22;50274;45.640;11.756;2023-08-06T14:23:42;29.60;51.80
63017;DHT22;50274;45.640;11.756;2023-08-06T14:26:08;29.60;52.30
63017;DHT22;50274;45.640;11.756;2023-08-06T14:28:36;29.40;52.80
63017;DHT22;50274;45.640;11.756;2023-08-06T14:31:02;29.20;53.50
63017;DHT22;50274;45.640;11.756;2023-08-06T14:33:28;29.20;53.50
63017;DHT22;50274;45.640;11.756;2023-08-06T14:35:53;29.40;53.60
63017;DHT22;50274;45.640;11.756;2023-08-06T14:38:19;29.50;53.10
63017;DHT22;50274;45.640;11.756;2023-08-06T14:40:45;29.70;52.70
63017;DHT22;50274;45.640;11.756;2023-08-06T14:43:11;29.90;52.60
63017;DHT22;50274;45.640;11.756;2023-08-06T14:45:40;30.20;52.40
63017;DHT22;50274;45.640;11.756;2023-08-06T14:48:06;30.40;51.90
63017;DHT22;50274;45.640;11.756;2023-08-06T14:50:32;30.40;51.50
63017;DHT22;50274;45.640;11.756;2023-08-06T14:52:58;30.60;51.50
63017;DHT22;50274;45.640;11.756;2023-08-06T14:55:28;30.60;51.20
63017;DHT22;50274;45.640;11.756;2023-08-06T14:57:54;30.60;50.90
63017;DHT22;50274;45.640;11.756;2023-08-06T15:00:20;30.70;50.80
63017;DHT22;50274;45.640;11.756;2023-08-06T15:02:46;30.50;51.00
63017;DHT22;50274;45.640;11.756;2023-08-06T15:05:12;30.40;51.50
63017;DHT22;50274;45.640;11.756;2023-08-06T15:07:38;30.20;51.60
63017;DHT22;50274;45.640;11.756;2023-08-06T15:10:05;30.10;51.80
63017;DHT22;50274;45.640;11.756;2023-08-06T15:12:31;30.10;52.00
63017;DHT22;50274;45.640;11.756;2023-08-06T15:14:58;30.00;51.40
63017;DHT22;50274;45.640;11.756;2023-08-06T15:17:26;30.00;51.20
63017;DHT22;50274;45.640;11.756;2023-08-06T15:19:56;30.10;51.00
63017;DHT22;50274;45.640;11.756;2023-08-06T15:22:23;30.00;50.00
63017;DHT22;50274;45.640;11.756;2023-08-06T15:24:49;30.00;49.70
63017;DHT22;50274;45.640;11.756;2023-08-06T15:27:15;29.90;49.10
63017;DHT22;50274;45.640;11.756;2023-08-06T15:29:41;29.90;49.20
63017;DHT22;50274;45.640;11.756;2023-08-06T15:32:08;29.80;49.40
63017;DHT22;50274;45.640;11.756;2023-08-06T15:34:34;29.80;49.50
63017;DHT22;50274;45.640;11.756;2023-08-06T15:37:00;29.70;49.60